createdAt,value
2022-09-26T00:00:53.576Z,93.54
2022-09-26T00:05:53.478Z,93.64
2022-09-26T00:10:53.433Z,93.44
2022-09-26T00:15:53.367Z,93.23
2022-09-26T00:20:53.380Z,93.33
2022-09-26T00:25:53.306Z,93.33
2022-09-26T00:30:53.354Z,93.48
2022-09-26T00:35:53.200Z,93.89
2022-09-26T00:40:53.241Z,93.59
2022-09-26T00:45:53.146Z,93.68
2022-09-26T00:50:53.044Z,93.99
2022-09-26T00:55:52.946Z,93.85
2022-09-26T01:00:52.925Z,93.54
2022-09-26T01:05:52.835Z,93.64
2022-09-26T01:10:52.760Z,93.74
2022-09-26T01:15:52.711Z,93.74
2022-09-26T01:20:52.642Z,93.54
2022-09-26T01:25:52.701Z,93.29
2022-09-26T01:30:52.672Z,92.83
2022-09-26T01:35:52.563Z,92.83
2022-09-26T01:40:52.533Z,92.28
2022-09-26T01:45:52.445Z,92.12
2022-09-26T01:50:52.339Z,92.32
2022-09-26T01:55:52.281Z,92.83
2022-09-26T02:00:52.347Z,92.63
2022-09-26T02:05:52.215Z,92.49
2022-09-26T02:10:52.147Z,91.83
2022-09-26T02:15:52.196Z,91.83
2022-09-26T02:20:52.034Z,91.27
2022-09-26T02:25:51.977Z,91.17
2022-09-26T02:30:51.910Z,91.17
2022-09-26T02:35:51.843Z,90.97
2022-09-26T02:40:51.814Z,90.62
2022-09-26T02:45:51.783Z,90.62
2022-09-26T02:50:51.759Z,90.62
2022-09-26T02:55:51.701Z,90.92
2022-09-26T03:00:51.663Z,90.92
2022-09-26T03:05:51.590Z,91.13
2022-09-26T03:10:51.517Z,91.03
2022-09-26T03:15:51.399Z,91.44
2022-09-26T03:20:51.359Z,91.23
2022-09-26T03:25:51.311Z,91.13
2022-09-26T03:30:51.220Z,91.44
2022-09-26T03:35:54.507Z,91.74
2022-09-26T03:40:51.286Z,91.54
2022-09-26T03:45:51.171Z,91.95
2022-09-26T03:50:51.057Z,91.64
2022-09-26T03:55:50.982Z,91.64
2022-09-26T04:00:50.983Z,91.13
2022-09-26T04:05:59.743Z,91.33
2022-09-26T04:10:50.782Z,91.74
2022-09-26T04:15:50.751Z,91.64
2022-09-26T04:20:50.832Z,91.54
2022-09-26T04:25:50.791Z,91.44
2022-09-26T04:30:50.854Z,91.64
2022-09-26T04:35:50.546Z,91.95
2022-09-26T04:40:50.666Z,91.85
2022-09-26T04:45:50.762Z,91.99
2022-09-26T04:50:50.495Z,91.99
2022-09-26T04:55:50.346Z,92.19
2022-09-26T05:00:50.341Z,92.30
2022-09-26T05:05:50.199Z,92.85
2022-09-26T05:10:50.159Z,92.75
2022-09-26T05:15:50.265Z,92.75
2022-09-26T05:20:50.280Z,92.75
2022-09-26T05:25:49.985Z,92.55
2022-09-26T05:30:50.104Z,92.19
2022-09-26T05:35:50.046Z,92.19
2022-09-26T05:40:50.006Z,91.89
2022-09-26T05:45:49.766Z,91.89
2022-09-26T05:50:49.725Z,91.48
2022-09-26T05:55:49.665Z,91.07
2022-09-26T06:00:49.638Z,90.52
2022-09-26T06:05:49.583Z,90.31
2022-09-26T06:10:49.642Z,89.76
2022-09-26T06:15:49.572Z,89.15
2022-09-26T06:20:49.493Z,88.39
2022-09-26T06:25:52.809Z,88.18
2022-09-26T06:30:49.367Z,87.37
2022-09-26T06:35:49.308Z,86.76
2022-09-26T06:40:49.279Z,86.51
2022-09-26T06:45:49.110Z,85.59
2022-09-26T06:50:49.051Z,84.83
2022-09-26T06:55:48.988Z,83.81
2022-09-26T07:00:49.084Z,84.12
2022-09-26T07:05:48.878Z,83.06
2022-09-26T07:10:48.830Z,82.75
2022-09-26T07:15:50.008Z,82.55
2022-09-26T07:20:52.142Z,82.45
2022-09-26T07:25:49.741Z,82.86
2022-09-26T07:30:48.697Z,83.87
2022-09-26T07:35:48.594Z,83.57
2022-09-26T07:40:48.731Z,83.47
2022-09-26T07:45:48.486Z,83.87
2022-09-26T07:50:48.378Z,83.78
2022-09-26T07:55:48.314Z,84.08
2022-09-26T08:00:48.264Z,83.47
2022-09-26T08:05:48.232Z,83.47
2022-09-26T08:10:48.157Z,84.08
2022-09-26T08:15:48.349Z,84.49
2022-09-26T08:20:48.156Z,85.00
2022-09-26T08:25:48.071Z,84.55
2022-09-26T08:30:51.499Z,85.21
2022-09-26T08:35:47.916Z,85.77
2022-09-26T08:40:47.952Z,84.96
2022-09-26T08:45:48.174Z,85.94
2022-09-26T08:50:47.721Z,85.98
2022-09-26T08:55:47.742Z,87.04
2022-09-26T09:00:47.600Z,87.76
2022-09-26T09:05:47.534Z,88.71
2022-09-26T09:10:47.480Z,89.43
2022-09-26T09:15:47.479Z,90.14
2022-09-26T09:20:47.367Z,90.70
2022-09-26T09:25:47.325Z,90.80
2022-09-26T09:30:47.483Z,90.90
2022-09-26T09:35:47.305Z,91.00
2022-09-26T09:40:47.384Z,91.52
2022-09-26T09:45:47.133Z,91.41
2022-09-26T09:50:50.437Z,91.12
2022-09-26T09:55:48.088Z,91.12
2022-09-26T10:00:51.054Z,91.27
2022-09-26T10:05:46.983Z,91.41
2022-09-26T10:10:46.933Z,91.61
2022-09-26T10:15:46.825Z,91.82
2022-09-26T10:20:46.712Z,91.57
2022-09-26T10:25:46.648Z,91.67
2022-09-26T10:30:46.651Z,91.16
2022-09-26T10:35:46.538Z,90.55
2022-09-26T10:40:46.709Z,91.12
2022-09-26T10:45:46.511Z,90.81
2022-09-26T10:50:47.471Z,89.94
2022-09-26T10:55:46.367Z,90.71
2022-09-26T11:00:46.330Z,89.79
2022-09-26T11:05:46.358Z,89.14
2022-09-26T11:10:46.155Z,89.45
2022-09-26T11:15:46.103Z,89.14
2022-09-26T11:20:46.057Z,88.69
2022-09-26T11:25:45.987Z,89.12
2022-09-26T11:30:45.963Z,87.24
2022-09-26T11:35:45.879Z,86.29
2022-09-26T11:40:45.930Z,84.80
2022-09-26T11:45:47.651Z,85.17
2022-09-26T11:50:49.228Z,84.86
2022-09-26T11:55:45.657Z,83.23
2022-09-26T12:00:45.688Z,83.64
2022-09-26T12:05:45.554Z,82.99
2022-09-26T12:10:45.513Z,82.99
2022-09-26T12:15:45.545Z,81.21
2022-09-26T12:20:45.400Z,79.00
2022-09-26T12:25:45.325Z,77.79
2022-09-26T12:30:45.348Z,79.65
2022-09-26T12:35:45.296Z,78.41
2022-09-26T12:40:45.263Z,80.37
2022-09-26T12:45:53.132Z,83.87
2022-09-26T12:50:46.060Z,84.62
2022-09-26T12:55:45.098Z,85.47
2022-09-26T13:00:44.974Z,86.29
2022-09-26T13:05:44.902Z,87.04
2022-09-26T13:10:44.837Z,88.16
2022-09-26T13:15:44.802Z,88.36
2022-09-26T13:20:44.717Z,88.87
2022-09-26T13:25:49.277Z,89.32
2022-09-26T13:30:45.657Z,89.32
2022-09-26T13:35:44.605Z,89.07
2022-09-26T13:40:44.655Z,88.36
2022-09-26T13:45:44.534Z,89.24
2022-09-26T13:50:44.475Z,87.55
2022-09-26T13:55:44.428Z,88.10
2022-09-26T14:00:44.308Z,88.75
2022-09-26T14:05:44.267Z,89.67
2022-09-26T14:10:44.163Z,89.81
2022-09-26T14:15:44.123Z,90.32
2022-09-26T14:20:44.049Z,90.42
2022-09-26T14:25:44.067Z,90.53
2022-09-26T14:30:44.014Z,90.16
2022-09-26T14:35:43.939Z,90.88
2022-09-26T14:40:44.019Z,91.33
2022-09-26T14:45:43.877Z,91.59
2022-09-26T14:50:43.754Z,91.89
2022-09-26T14:55:43.699Z,92.14
2022-09-26T15:00:43.637Z,91.53
2022-09-26T15:05:43.562Z,92.45
2022-09-26T15:10:43.513Z,92.76
2022-09-26T15:15:43.513Z,93.26
2022-09-26T15:20:43.406Z,93.51
2022-09-26T15:25:43.348Z,94.02
2022-09-26T15:30:43.342Z,94.53
2022-09-26T15:35:43.313Z,94.17
2022-09-26T15:40:44.341Z,94.68
2022-09-26T15:45:43.190Z,94.48
2022-09-26T15:50:43.131Z,94.68
2022-09-26T15:55:43.072Z,94.78
2022-09-26T16:00:43.010Z,94.98
2022-09-26T16:05:51.795Z,94.89
2022-09-26T16:10:42.877Z,95.09
2022-09-26T16:15:42.860Z,95.29
2022-09-26T16:20:42.715Z,95.39
2022-09-26T16:25:42.662Z,95.60
2022-09-26T16:30:42.736Z,95.85
2022-09-26T16:35:42.555Z,96.36
2022-09-26T16:40:42.589Z,96.87
2022-09-26T16:45:42.459Z,96.77
2022-09-26T16:50:42.393Z,97.28
2022-09-26T16:55:43.374Z,97.08
2022-09-26T17:00:42.341Z,97.08
2022-09-26T17:05:42.304Z,97.28
2022-09-26T17:10:42.235Z,97.08
2022-09-26T17:15:42.201Z,96.77
2022-09-26T17:20:42.097Z,96.67
2022-09-26T17:25:41.988Z,96.97
2022-09-26T17:30:41.965Z,96.56
2022-09-26T17:35:41.877Z,96.67
2022-09-26T17:40:41.860Z,96.61
2022-09-26T17:45:41.745Z,96.77
2022-09-26T17:50:41.776Z,96.51
2022-09-26T17:55:41.736Z,96.67
2022-09-26T18:00:41.663Z,97.02
2022-09-26T18:05:41.574Z,96.81
2022-09-26T18:10:41.507Z,96.81
2022-09-26T18:15:41.510Z,96.61
2022-09-26T18:20:41.567Z,97.22
2022-09-26T18:25:41.511Z,96.97
2022-09-26T18:30:41.295Z,97.17
2022-09-26T18:35:41.223Z,97.12
2022-09-26T18:40:41.210Z,97.22
2022-09-26T18:45:41.125Z,97.12
2022-09-26T18:50:41.286Z,97.38
2022-09-26T18:55:41.066Z,97.49
2022-09-26T19:00:40.963Z,97.49
2022-09-26T19:05:41.929Z,97.38
2022-09-26T19:10:40.843Z,97.79
2022-09-26T19:15:40.867Z,97.89
2022-09-26T19:20:40.734Z,97.69
2022-09-26T19:25:40.720Z,97.79
2022-09-26T19:30:40.750Z,97.99
2022-09-26T19:35:40.586Z,98.10
2022-09-26T19:40:43.738Z,98.20
2022-09-26T19:45:41.527Z,98.20
2022-09-26T19:50:40.376Z,97.99
2022-09-26T19:55:40.319Z,98.10
2022-09-26T20:00:40.275Z,98.10
2022-09-26T20:05:40.238Z,98.15
2022-09-26T20:10:40.247Z,98.05
2022-09-26T20:15:40.133Z,98.05
2022-09-26T20:20:40.070Z,98.30
2022-09-26T20:25:40.033Z,98.20
2022-09-26T20:30:40.026Z,97.95
2022-09-26T20:35:39.897Z,97.95
2022-09-26T20:40:39.866Z,97.79
2022-09-26T20:45:39.884Z,97.99
2022-09-26T20:50:39.786Z,97.89
2022-09-26T20:55:44.004Z,97.79
2022-09-26T21:00:39.663Z,97.58
2022-09-26T21:05:39.603Z,97.58
2022-09-26T21:10:39.534Z,97.58
2022-09-26T21:15:39.458Z,97.79
2022-09-26T21:20:39.371Z,97.69
2022-09-26T21:25:39.323Z,97.69
2022-09-26T21:30:39.305Z,97.69
2022-09-26T21:35:39.201Z,97.49
2022-09-26T21:40:39.247Z,97.58
2022-09-26T21:45:39.198Z,97.99
2022-09-26T21:50:39.086Z,97.69
2022-09-26T21:55:39.025Z,97.69
2022-09-26T22:00:38.956Z,97.89
2022-09-26T22:05:38.900Z,97.89
2022-09-26T22:10:38.784Z,97.79
2022-09-26T22:15:38.754Z,97.58
2022-09-26T22:20:38.674Z,97.49
2022-09-26T22:25:42.695Z,97.49
2022-09-26T22:30:38.582Z,97.49
2022-09-26T22:35:38.683Z,97.49
2022-09-26T22:40:38.660Z,97.89
2022-09-26T22:45:38.444Z,97.89
2022-09-26T22:50:38.417Z,97.99
2022-09-26T22:55:38.365Z,98.20
2022-09-26T23:00:38.244Z,98.20
2022-09-26T23:05:38.183Z,98.20
2022-09-26T23:10:38.124Z,98.55
2022-09-26T23:15:38.059Z,98.35
2022-09-26T23:20:38.023Z,98.65
2022-09-26T23:25:37.938Z,98.24
2022-09-26T23:30:37.928Z,98.24
2022-09-26T23:35:37.853Z,98.08
2022-09-26T23:40:37.941Z,98.80
2022-09-26T23:45:37.801Z,98.60
2022-09-26T23:50:37.799Z,98.29
2022-09-26T23:55:37.628Z,98.08
